sensor_id;sensor_type;location;lat;lon;timestamp;pressure;altitude;pressure_sealevel;temperature;humidity
41866;BME280;27539;43.222;27.558;2023-07-20T00:01:25;99861.44;;;25.42;100.00
41866;BME280;27539;43.222;27.558;2023-07-20T00:03:51;99846.13;;;25.47;100.00
41866;BME280;27539;43.222;27.558;2023-07-20T00:06:23;99857.78;;;25.58;100.00
41866;BME280;27539;43.222;27.558;2023-07-20T00:08:50;99850.25;;;25.50;100.00
41866;BME280;27539;43.222;27.558;2023-07-20T00:11:16;99803.00;;;25.17;100.00
41866;BME280;27539;43.222;27.558;2023-07-20T00:13:41;99855.13;;;25.49;100.00
41866;BME280;27539;43.222;27.558;2023-07-20T00:16:07;99862.59;;;25.54;100.00
41866;BME280;27539;43.222;27.558;2023-07-20T00:18:32;99870.66;;;25.52;100.00
41866;BME280;27539;43.222;27.558;2023-07-20T00:20:58;99863.13;;;25.43;100.00
41866;BME280;27539;43.222;27.558;2023-07-20T00:23:25;99865.59;;;25.45;100.00
41866;BME280;27539;43.222;27.558;2023-07-20T00:25:51;99835.72;;;25.23;100.00
41866;BME280;27539;43.222;27.558;2023-07-20T00:28:16;99845.00;;;25.36;100.00
41866;BME280;27539;43.222;27.558;2023-07-20T00:30:42;99852.28;;;25.33;100.00
41866;BME280;27539;43.222;27.558;2023-07-20T00:33:11;99862.19;;;25.39;100.00
41866;BME280;27539;43.222;27.558;2023-07-20T00:35:38;99856.03;;;25.37;100.00
41866;BME280;27539;43.222;27.558;2023-07-20T00:38:04;99858.13;;;25.40;100.00
41866;BME280;27539;43.222;27.558;2023-07-20T00:40:38;99839.59;;;25.31;100.00
41866;BME280;27539;43.222;27.558;2023-07-20T00:43:04;99852.16;;;25.30;100.00
41866;BME280;27539;43.222;27.558;2023-07-20T00:45:30;99856.56;;;25.15;100.00
41866;BME280;27539;43.222;27.558;2023-07-20T00:47:57;99858.97;;;25.13;100.00
41866;BME280;27539;43.222;27.558;2023-07-20T00:50:24;99858.88;;;25.09;100.00
41866;BME280;27539;43.222;27.558;2023-07-20T00:52:50;99859.94;;;25.05;100.00
41866;BME280;27539;43.222;27.558;2023-07-20T00:55:16;99861.63;;;25.06;100.00
41866;BME280;27539;43.222;27.558;2023-07-20T00:57:41;99846.38;;;24.98;100.00
41866;BME280;27539;43.222;27.558;2023-07-20T01:00:07;99853.56;;;24.95;100.00
41866;BME280;27539;43.222;27.558;2023-07-20T01:02:33;99842.84;;;24.89;100.00
41866;BME280;27539;43.222;27.558;2023-07-20T01:04:59;99849.09;;;24.94;100.00
41866;BME280;27539;43.222;27.558;2023-07-20T01:07:36;99858.31;;;25.04;100.00
41866;BME280;27539;43.222;27.558;2023-07-20T01:12:51;99870.91;;;24.90;100.00
41866;BME280;27539;43.222;27.558;2023-07-20T01:15:17;99843.06;;;24.55;100.00
41866;BME280;27539;43.222;27.558;2023-07-20T01:17:43;99898.56;;;24.77;100.00
41866;BME280;27539;43.222;27.558;2023-07-20T01:20:15;99913.50;;;24.74;100.00
41866;BME280;27539;43.222;27.558;2023-07-20T01:23:07;99911.03;;;24.73;100.00
41866;BME280;27539;43.222;27.558;2023-07-20T01:31:24;99906.56;;;24.47;100.00
41866;BME280;27539;43.222;27.558;2023-07-20T01:33:50;99970.47;;;24.90;100.00
41866;BME280;27539;43.222;27.558;2023-07-20T01:36:18;99899.03;;;24.79;100.00
41866;BME280;27539;43.222;27.558;2023-07-20T01:38:45;99945.63;;;25.15;100.00
41866;BME280;27539;43.222;27.558;2023-07-20T01:41:11;99956.06;;;25.36;100.00
41866;BME280;27539;43.222;27.558;2023-07-20T01:43:37;99945.00;;;25.34;100.00
41866;BME280;27539;43.222;27.558;2023-07-20T01:46:02;99962.53;;;25.49;100.00
41866;BME280;27539;43.222;27.558;2023-07-20T01:48:28;99955.16;;;25.48;100.00
41866;BME280;27539;43.222;27.558;2023-07-20T01:50:53;99957.84;;;25.56;100.00
41866;BME280;27539;43.222;27.558;2023-07-20T01:53:20;99954.19;;;25.56;100.00
41866;BME280;27539;43.222;27.558;2023-07-20T01:55:45;99942.41;;;25.57;100.00
41866;BME280;27539;43.222;27.558;2023-07-20T01:58:11;99943.63;;;25.72;100.00
41866;BME280;27539;43.222;27.558;2023-07-20T02:00:37;99951.84;;;25.74;100.00
41866;BME280;27539;43.222;27.558;2023-07-20T02:03:03;99942.63;;;25.80;100.00
41866;BME280;27539;43.222;27.558;2023-07-20T02:05:29;99937.41;;;25.82;100.00
41866;BME280;27539;43.222;27.558;2023-07-20T02:07:54;99935.38;;;25.83;100.00
41866;BME280;27539;43.222;27.558;2023-07-20T02:10:20;99924.91;;;25.71;100.00
41866;BME280;27539;43.222;27.558;2023-07-20T02:12:45;99909.78;;;25.55;100.00
41866;BME280;27539;43.222;27.558;2023-07-20T02:15:11;99919.47;;;25.38;100.00
41866;BME280;27539;43.222;27.558;2023-07-20T02:17:38;99936.06;;;25.48;100.00
41866;BME280;27539;43.222;27.558;2023-07-20T02:20:07;99953.84;;;25.17;100.00
41866;BME280;27539;43.222;27.558;2023-07-20T02:22:34;99945.41;;;24.43;100.00
41866;BME280;27539;43.222;27.558;2023-07-20T02:24:59;99936.16;;;24.34;100.00
41866;BME280;27539;43.222;27.558;2023-07-20T02:27:25;99926.91;;;24.62;100.00
41866;BME280;27539;43.222;27.558;2023-07-20T02:29:50;99910.34;;;24.51;100.00
41866;BME280;27539;43.222;27.558;2023-07-20T02:32:16;99922.41;;;24.73;100.00
41866;BME280;27539;43.222;27.558;2023-07-20T02:34:41;99912.22;;;24.72;100.00
41866;BME280;27539;43.222;27.558;2023-07-20T02:37:07;99905.69;;;24.71;100.00
41866;BME280;27539;43.222;27.558;2023-07-20T02:39:32;99905.56;;;24.68;100.00
41866;BME280;27539;43.222;27.558;2023-07-20T02:41:58;99868.44;;;24.48;100.00
41866;BME280;27539;43.222;27.558;2023-07-20T02:44:23;99897.19;;;24.47;100.00
41866;BME280;27539;43.222;27.558;2023-07-20T02:46:49;99885.94;;;24.38;100.00
41866;BME280;27539;43.222;27.558;2023-07-20T02:49:17;99898.38;;;24.33;100.00
41866;BME280;27539;43.222;27.558;2023-07-20T02:51:42;99887.00;;;24.21;100.00
41866;BME280;27539;43.222;27.558;2023-07-20T02:54:08;99876.94;;;24.11;100.00
41866;BME280;27539;43.222;27.558;2023-07-20T02:56:33;99856.34;;;24.02;100.00
41866;BME280;27539;43.222;27.558;2023-07-20T02:59:01;99844.16;;;23.89;100.00
41866;BME280;27539;43.222;27.558;2023-07-20T03:01:26;99840.59;;;23.92;100.00
41866;BME280;27539;43.222;27.558;2023-07-20T03:03:55;99826.00;;;23.69;100.00
41866;BME280;27539;43.222;27.558;2023-07-20T03:06:20;99827.28;;;23.47;100.00
41866;BME280;27539;43.222;27.558;2023-07-20T03:08:46;99833.88;;;23.73;100.00
41866;BME280;27539;43.222;27.558;2023-07-20T03:11:17;99806.41;;;23.89;100.00
41866;BME280;27539;43.222;27.558;2023-07-20T03:13:44;99801.53;;;24.02;100.00
41866;BME280;27539;43.222;27.558;2023-07-20T03:16:16;99781.28;;;24.15;100.00
41866;BME280;27539;43.222;27.558;2023-07-20T03:18:43;99780.78;;;24.26;100.00
41866;BME280;27539;43.222;27.558;2023-07-20T03:21:09;99771.97;;;24.43;100.00
41866;BME280;27539;43.222;27.558;2023-07-20T03:23:39;99773.00;;;24.63;100.00
41866;BME280;27539;43.222;27.558;2023-07-20T03:26:05;99743.94;;;24.70;100.00
41866;BME280;27539;43.222;27.558;2023-07-20T03:28:30;99713.22;;;24.75;100.00
41866;BME280;27539;43.222;27.558;2023-07-20T03:30:56;99699.66;;;24.85;100.00
41866;BME280;27539;43.222;27.558;2023-07-20T03:33:26;99670.38;;;24.84;100.00
41866;BME280;27539;43.222;27.558;2023-07-20T03:35:53;99690.50;;;24.91;100.00
41866;BME280;27539;43.222;27.558;2023-07-20T03:38:19;99697.19;;;24.99;100.00
41866;BME280;27539;43.222;27.558;2023-07-20T03:43:20;99696.66;;;25.09;100.00
41866;BME280;27539;43.222;27.558;2023-07-20T03:45:46;99707.66;;;24.95;100.00
41866;BME280;27539;43.222;27.558;2023-07-20T03:48:16;99719.34;;;24.77;100.00
41866;BME280;27539;43.222;27.558;2023-07-20T03:50:43;99692.34;;;24.55;100.00
41866;BME280;27539;43.222;27.558;2023-07-20T03:53:09;99701.84;;;24.75;100.00
41866;BME280;27539;43.222;27.558;2023-07-20T03:55:34;99705.53;;;24.92;100.00
41866;BME280;27539;43.222;27.558;2023-07-20T03:58:01;99691.25;;;25.04;100.00
41866;BME280;27539;43.222;27.558;2023-07-20T04:00:27;99691.00;;;25.25;100.00
41866;BME280;27539;43.222;27.558;2023-07-20T04:02:52;99709.72;;;25.42;100.00
41866;BME280;27539;43.222;27.558;2023-07-20T04:05:18;99704.97;;;25.46;100.00
41866;BME280;27539;43.222;27.558;2023-07-20T04:07:43;99729.59;;;25.10;100.00
41866;BME280;27539;43.222;27.558;2023-07-20T04:10:09;99754.78;;;24.80;100.00
41866;BME280;27539;43.222;27.558;2023-07-20T04:12:35;99731.69;;;24.82;100.00
41866;BME280;27539;43.222;27.558;2023-07-20T04:15:00;99741.09;;;24.70;100.00
41866;BME280;27539;43.222;27.558;2023-07-20T04:17:26;99748.13;;;24.88;100.00
41866;BME280;27539;43.222;27.558;2023-07-20T04:19:51;99763.72;;;24.94;100.00
41866;BME280;27539;43.222;27.558;2023-07-20T04:22:17;99752.25;;;24.91;100.00
41866;BME280;27539;43.222;27.558;2023-07-20T04:24:42;99754.47;;;24.97;100.00
41866;BME280;27539;43.222;27.558;2023-07-20T04:27:08;99756.28;;;25.34;100.00
41866;BME280;27539;43.222;27.558;2023-07-20T04:29:34;99754.38;;;25.54;100.00
41866;BME280;27539;43.222;27.558;2023-07-20T04:31:59;99734.94;;;25.75;100.00
41866;BME280;27539;43.222;27.558;2023-07-20T04:34:25;99741.72;;;26.02;100.00
41866;BME280;27539;43.222;27.558;2023-07-20T04:36:50;99749.66;;;26.28;100.00
41866;BME280;27539;43.222;27.558;2023-07-20T04:39:16;99744.25;;;26.43;100.00
41866;BME280;27539;43.222;27.558;2023-07-20T04:41:41;99766.28;;;26.81;100.00
41866;BME280;27539;43.222;27.558;2023-07-20T04:44:07;99767.41;;;26.96;100.00
41866;BME280;27539;43.222;27.558;2023-07-20T04:46:32;99783.06;;;27.06;100.00
41866;BME280;27539;43.222;27.558;2023-07-20T04:48:58;99803.72;;;27.19;100.00
41866;BME280;27539;43.222;27.558;2023-07-20T04:51:23;99817.56;;;27.17;100.00
41866;BME280;27539;43.222;27.558;2023-07-20T04:53:49;99778.59;;;26.85;100.00
41866;BME280;27539;43.222;27.558;2023-07-20T04:56:15;99834.03;;;27.04;100.00
41866;BME280;27539;43.222;27.558;2023-07-20T04:58:40;99843.63;;;26.96;100.00
41866;BME280;27539;43.222;27.558;2023-07-20T05:01:06;99829.91;;;27.01;100.00
41866;BME280;27539;43.222;27.558;2023-07-20T05:03:31;99809.75;;;26.94;100.00
41866;BME280;27539;43.222;27.558;2023-07-20T05:05:57;99842.34;;;27.32;100.00
41866;BME280;27539;43.222;27.558;2023-07-20T05:08:23;99835.94;;;27.39;100.00
41866;BME280;27539;43.222;27.558;2023-07-20T05:10:48;99829.09;;;27.66;100.00
41866;BME280;27539;43.222;27.558;2023-07-20T05:13:14;99835.84;;;27.77;100.00
41866;BME280;27539;43.222;27.558;2023-07-20T05:15:39;99835.59;;;27.86;100.00
41866;BME280;27539;43.222;27.558;2023-07-20T05:18:05;99840.88;;;28.07;100.00
41866;BME280;27539;43.222;27.558;2023-07-20T05:20:31;99845.59;;;28.22;100.00
41866;BME280;27539;43.222;27.558;2023-07-20T05:22:58;99847.41;;;28.08;100.00
41866;BME280;27539;43.222;27.558;2023-07-20T05:25:24;99860.72;;;28.23;100.00
41866;BME280;27539;43.222;27.558;2023-07-20T05:27:49;99864.78;;;28.45;100.00
41866;BME280;27539;43.222;27.558;2023-07-20T05:30:16;99867.69;;;28.49;100.00
41866;BME280;27539;43.222;27.558;2023-07-20T05:32:41;99863.81;;;28.37;99.74
41866;BME280;27539;43.222;27.558;2023-07-20T05:35:07;99860.63;;;28.42;99.74
41866;BME280;27539;43.222;27.558;2023-07-20T05:37:33;99868.34;;;28.65;98.77
41866;BME280;27539;43.222;27.558;2023-07-20T05:39:59;99863.00;;;28.63;98.55
41866;BME280;27539;43.222;27.558;2023-07-20T05:42:24;99864.31;;;28.70;97.41
41866;BME280;27539;43.222;27.558;2023-07-20T05:44:50;99871.06;;;28.84;96.91
41866;BME280;27539;43.222;27.558;2023-07-20T05:47:18;99876.97;;;28.99;95.01
41866;BME280;27539;43.222;27.558;2023-07-20T05:49:43;99860.66;;;29.03;94.86
41866;BME280;27539;43.222;27.558;2023-07-20T05:52:09;99889.66;;;29.32;95.25
41866;BME280;27539;43.222;27.558;2023-07-20T05:54:34;99887.94;;;29.23;93.47
41866;BME280;27539;43.222;27.558;2023-07-20T05:57:00;99877.41;;;28.71;95.30
41866;BME280;27539;43.222;27.558;2023-07-20T05:59:27;99893.69;;;28.67;96.40
41866;BME280;27539;43.222;27.558;2023-07-20T06:01:54;99889.81;;;28.52;97.70
41866;BME280;27539;43.222;27.558;2023-07-20T06:04:20;99900.09;;;28.33;96.93
41866;BME280;27539;43.222;27.558;2023-07-20T06:06:45;99895.47;;;28.25;97.49
41866;BME280;27539;43.222;27.558;2023-07-20T06:09:11;99917.41;;;28.17;99.13
41866;BME280;27539;43.222;27.558;2023-07-20T06:11:40;99875.03;;;27.77;99.09
41866;BME280;27539;43.222;27.558;2023-07-20T06:14:06;99894.56;;;27.52;100.00
41866;BME280;27539;43.222;27.558;2023-07-20T06:16:31;99900.84;;;27.61;100.00
41866;BME280;27539;43.222;27.558;2023-07-20T06:18:57;99894.78;;;27.43;100.00
41866;BME280;27539;43.222;27.558;2023-07-20T06:21:23;99916.00;;;27.42;100.00
41866;BME280;27539;43.222;27.558;2023-07-20T06:23:49;99911.78;;;27.36;100.00
41866;BME280;27539;43.222;27.558;2023-07-20T06:26:14;99897.94;;;27.38;99.66
41866;BME280;27539;43.222;27.558;2023-07-20T06:28:41;99899.16;;;27.37;98.46
41866;BME280;27539;43.222;27.558;2023-07-20T06:31:06;99895.84;;;27.35;98.37
41866;BME280;27539;43.222;27.558;2023-07-20T06:33:32;99891.47;;;27.41;97.30
41866;BME280;27539;43.222;27.558;2023-07-20T06:35:57;99845.00;;;27.21;97.69
41866;BME280;27539;43.222;27.558;2023-07-20T06:38:23;99876.00;;;27.42;100.00
41866;BME280;27539;43.222;27.558;2023-07-20T06:40:49;99845.91;;;27.48;100.00
41866;BME280;27539;43.222;27.558;2023-07-20T06:43:15;99861.28;;;27.63;100.00
41866;BME280;27539;43.222;27.558;2023-07-20T06:45:41;99839.72;;;27.66;100.00
41866;BME280;27539;43.222;27.558;2023-07-20T06:48:07;99849.53;;;27.68;100.00
41866;BME280;27539;43.222;27.558;2023-07-20T06:50:32;99860.78;;;27.57;100.00
41866;BME280;27539;43.222;27.558;2023-07-20T06:52:58;99821.31;;;27.21;100.00
41866;BME280;27539;43.222;27.558;2023-07-20T12:48:44;99597.22;;;36.59;42.73
41866;BME280;27539;43.222;27.558;2023-07-20T12:51:11;99602.16;;;36.94;41.71
41866;BME280;27539;43.222;27.558;2023-07-20T12:53:37;99594.84;;;37.06;41.93
41866;BME280;27539;43.222;27.558;2023-07-20T12:56:03;99610.94;;;36.91;40.09
41866;BME280;27539;43.222;27.558;2023-07-20T12:58:29;99608.25;;;37.16;40.97
41866;BME280;27539;43.222;27.558;2023-07-20T13:00:55;99603.81;;;36.59;39.07
41866;BME280;27539;43.222;27.558;2023-07-20T13:03:20;99603.88;;;36.92;40.81
41866;BME280;27539;43.222;27.558;2023-07-20T13:05:47;99597.94;;;36.63;40.36
41866;BME280;27539;43.222;27.558;2023-07-20T13:08:13;99598.44;;;36.78;39.12
41866;BME280;27539;43.222;27.558;2023-07-20T13:10:38;99603.16;;;36.88;39.52
41866;BME280;27539;43.222;27.558;2023-07-20T13:13:04;99586.22;;;37.03;39.93
41866;BME280;27539;43.222;27.558;2023-07-20T13:15:31;99563.09;;;36.99;38.72
41866;BME280;27539;43.222;27.558;2023-07-20T13:17:57;99591.50;;;37.08;39.51
41866;BME280;27539;43.222;27.558;2023-07-20T13:20:23;99581.72;;;37.18;38.53
41866;BME280;27539;43.222;27.558;2023-07-20T13:22:48;99585.41;;;37.02;38.44
41866;BME280;27539;43.222;27.558;2023-07-20T13:25:14;99582.72;;;37.11;38.59
41866;BME280;27539;43.222;27.558;2023-07-20T13:27:39;99583.06;;;36.97;38.44
41866;BME280;27539;43.222;27.558;2023-07-20T13:30:05;99583.34;;;37.03;39.01
41866;BME280;27539;43.222;27.558;2023-07-20T13:32:33;99571.03;;;37.15;38.74
41866;BME280;27539;43.222;27.558;2023-07-20T13:34:59;99566.66;;;36.90;39.52
41866;BME280;27539;43.222;27.558;2023-07-20T13:37:25;99570.44;;;37.04;38.73
41866;BME280;27539;43.222;27.558;2023-07-20T13:39:51;99568.09;;;37.31;38.61
41866;BME280;27539;43.222;27.558;2023-07-20T13:42:16;99575.16;;;37.47;37.50
41866;BME280;27539;43.222;27.558;2023-07-20T13:44:42;99566.00;;;37.48;38.30
41866;BME280;27539;43.222;27.558;2023-07-20T13:47:08;99577.69;;;37.61;37.71
41866;BME280;27539;43.222;27.558;2023-07-20T13:49:33;99570.09;;;37.34;37.75
41866;BME280;27539;43.222;27.558;2023-07-20T13:51:59;99562.38;;;37.44;37.55
41866;BME280;27539;43.222;27.558;2023-07-20T13:54:25;99561.66;;;37.56;37.98
41866;BME280;27539;43.222;27.558;2023-07-20T13:56:51;99563.88;;;37.19;38.45
41866;BME280;27539;43.222;27.558;2023-07-20T13:59:17;99580.72;;;37.08;39.61
41866;BME280;27539;43.222;27.558;2023-07-20T14:01:43;99575.88;;;36.85;38.56
41866;BME280;27539;43.222;27.558;2023-07-20T14:04:08;99522.69;;;36.59;39.41
41866;BME280;27539;43.222;27.558;2023-07-20T14:06:34;99559.59;;;36.75;39.37
41866;BME280;27539;43.222;27.558;2023-07-20T14:09:00;99560.75;;;36.41;39.92
41866;BME280;27539;43.222;27.558;2023-07-20T14:11:25;99547.69;;;36.33;40.41
41866;BME280;27539;43.222;27.558;2023-07-20T14:13:51;99532.13;;;36.07;39.01
41866;BME280;27539;43.222;27.558;2023-07-20T14:16:19;99550.38;;;36.24;40.09
41866;BME280;27539;43.222;27.558;2023-07-20T14:18:45;99548.63;;;36.46;40.28
41866;BME280;27539;43.222;27.558;2023-07-20T14:21:17;99533.63;;;36.15;41.02
41866;BME280;27539;43.222;27.558;2023-07-20T14:23:48;99538.09;;;36.20;40.20
41866;BME280;27539;43.222;27.558;2023-07-20T14:26:14;99549.84;;;36.29;40.50
41866;BME280;27539;43.222;27.558;2023-07-20T14:28:40;99547.75;;;36.49;40.70
41866;BME280;27539;43.222;27.558;2023-07-20T14:31:06;99538.94;;;36.73;41.71
41866;BME280;27539;43.222;27.558;2023-07-20T14:33:31;99532.06;;;36.83;40.71
41866;BME280;27539;43.222;27.558;2023-07-20T14:37:13;99504.69;;;36.68;40.29
41866;BME280;27539;43.222;27.558;2023-07-20T14:39:39;99498.00;;;36.71;40.06
41866;BME280;27539;43.222;27.558;2023-07-20T14:42:04;99502.88;;;36.58;39.37
41866;BME280;27539;43.222;27.558;2023-07-20T14:44:30;99524.25;;;36.64;39.94
41866;BME280;27539;43.222;27.558;2023-07-20T14:46:55;99520.84;;;36.32;40.98
41866;BME280;27539;43.222;27.558;2023-07-20T14:49:21;99529.09;;;36.14;40.49
41866;BME280;27539;43.222;27.558;2023-07-20T14:51:46;99507.16;;;36.33;40.10
41866;BME280;27539;43.222;27.558;2023-07-20T14:54:12;99511.69;;;36.34;40.64
41866;BME280;27539;43.222;27.558;2023-07-20T14:56:38;99500.13;;;36.50;40.54
41866;BME280;27539;43.222;27.558;2023-07-20T14:59:05;99503.63;;;36.25;41.64
41866;BME280;27539;43.222;27.558;2023-07-20T15:01:31;99494.88;;;36.09;41.20
41866;BME280;27539;43.222;27.558;2023-07-20T15:03:57;99500.13;;;35.94;42.08
41866;BME280;27539;43.222;27.558;2023-07-20T15:06:23;99516.50;;;35.64;42.43
41866;BME280;27539;43.222;27.558;2023-07-20T15:08:48;99509.59;;;35.35;43.08
41866;BME280;27539;43.222;27.558;2023-07-20T15:11:14;99536.78;;;35.17;43.72
41866;BME280;27539;43.222;27.558;2023-07-20T15:13:39;99551.56;;;34.96;44.94
41866;BME280;27539;43.222;27.558;2023-07-20T15:16:08;99553.75;;;34.61;45.84
41866;BME280;27539;43.222;27.558;2023-07-20T15:18:36;99546.66;;;34.08;53.67
41866;BME280;27539;43.222;27.558;2023-07-20T15:21:01;99560.03;;;33.53;62.51
41866;BME280;27539;43.222;27.558;2023-07-20T15:23:27;99577.91;;;33.37;72.47
41866;BME280;27539;43.222;27.558;2023-07-20T15:25:52;99575.53;;;32.76;80.55
41866;BME280;27539;43.222;27.558;2023-07-20T15:28:17;99579.09;;;32.24;82.23
41866;BME280;27539;43.222;27.558;2023-07-20T15:30:43;99558.75;;;31.72;86.69
41866;BME280;27539;43.222;27.558;2023-07-20T15:33:08;99561.66;;;31.61;87.24
41866;BME280;27539;43.222;27.558;2023-07-20T15:35:34;99538.31;;;31.31;87.58
41866;BME280;27539;43.222;27.558;2023-07-20T15:37:59;99578.13;;;31.47;87.96
41866;BME280;27539;43.222;27.558;2023-07-20T15:40:25;99574.81;;;31.37;88.63
41866;BME280;27539;43.222;27.558;2023-07-20T15:42:50;99540.75;;;31.32;88.44
41866;BME280;27539;43.222;27.558;2023-07-20T15:45:16;99558.38;;;31.70;87.13
41866;BME280;27539;43.222;27.558;2023-07-20T15:47:41;99553.78;;;31.80;84.26
41866;BME280;27539;43.222;27.558;2023-07-20T15:50:07;99559.47;;;32.05;82.73
41866;BME280;27539;43.222;27.558;2023-07-20T15:52:33;99556.94;;;32.18;92.42
41866;BME280;27539;43.222;27.558;2023-07-20T15:54:58;99560.69;;;32.11;96.38
41866;BME280;27539;43.222;27.558;2023-07-20T15:57:24;99544.28;;;32.01;98.62
41866;BME280;27539;43.222;27.558;2023-07-20T15:59:49;99561.09;;;32.10;96.79
41866;BME280;27539;43.222;27.558;2023-07-20T16:02:15;99552.09;;;32.04;96.95
41866;BME280;27539;43.222;27.558;2023-07-20T16:04:40;99554.41;;;32.31;97.30
41866;BME280;27539;43.222;27.558;2023-07-20T16:07:06;99550.56;;;32.55;96.14
41866;BME280;27539;43.222;27.558;2023-07-20T16:09:32;99555.38;;;32.72;90.71
41866;BME280;27539;43.222;27.558;2023-07-20T16:12:00;99568.38;;;32.95;87.52
41866;BME280;27539;43.222;27.558;2023-07-20T16:14:25;99566.50;;;32.74;87.22
41866;BME280;27539;43.222;27.558;2023-07-20T16:16:50;99574.53;;;32.97;89.18
41866;BME280;27539;43.222;27.558;2023-07-20T16:19:16;99564.28;;;32.92;86.55
41866;BME280;27539;43.222;27.558;2023-07-20T16:21:41;99580.94;;;32.70;84.40
41866;BME280;27539;43.222;27.558;2023-07-20T16:24:07;99586.66;;;32.74;84.27
41866;BME280;27539;43.222;27.558;2023-07-20T16:26:33;99575.09;;;32.78;84.35
41866;BME280;27539;43.222;27.558;2023-07-20T16:28:58;99580.03;;;32.81;84.06
41866;BME280;27539;43.222;27.558;2023-07-20T16:31:24;99584.94;;;32.80;82.46
41866;BME280;27539;43.222;27.558;2023-07-20T16:33:49;99588.63;;;32.84;84.07
41866;BME280;27539;43.222;27.558;2023-07-20T16:36:16;99591.19;;;32.71;82.73
41866;BME280;27539;43.222;27.558;2023-07-20T16:38:45;99608.47;;;32.68;84.44
41866;BME280;27539;43.222;27.558;2023-07-20T16:41:11;99614.13;;;32.05;86.58
41866;BME280;27539;43.222;27.558;2023-07-20T16:43:37;99614.22;;;31.73;88.74
41866;BME280;27539;43.222;27.558;2023-07-20T16:46:07;99608.06;;;31.56;91.28
41866;BME280;27539;43.222;27.558;2023-07-20T16:48:39;99617.94;;;31.52;92.00
41866;BME280;27539;43.222;27.558;2023-07-20T16:51:05;99630.22;;;31.34;93.83
41866;BME280;27539;43.222;27.558;2023-07-20T16:53:30;99594.94;;;30.94;97.82
41866;BME280;27539;43.222;27.558;2023-07-20T16:55:56;99643.78;;;30.91;99.45
41866;BME280;27539;43.222;27.558;2023-07-20T16:58:23;99604.38;;;30.84;100.00
41866;BME280;27539;43.222;27.558;2023-07-20T17:00:50;99634.34;;;31.05;100.00
41866;BME280;27539;43.222;27.558;2023-07-20T17:03:16;99655.69;;;30.93;100.00
41866;BME280;27539;43.222;27.558;2023-07-20T17:05:43;99645.75;;;30.72;100.00
41866;BME280;27539;43.222;27.558;2023-07-20T17:08:09;99648.97;;;30.56;100.00
41866;BME280;27539;43.222;27.558;2023-07-20T17:10:36;99653.03;;;30.41;100.00
41866;BME280;27539;43.222;27.558;2023-07-20T17:13:01;99654.72;;;30.53;100.00
41866;BME280;27539;43.222;27.558;2023-07-20T17:15:28;99644.47;;;30.55;100.00
41866;BME280;27539;43.222;27.558;2023-07-20T17:17:53;99647.28;;;30.45;100.00
41866;BME280;27539;43.222;27.558;2023-07-20T17:20:19;99640.31;;;30.42;100.00
41866;BME280;27539;43.222;27.558;2023-07-20T17:22:46;99657.16;;;30.54;100.00
41866;BME280;27539;43.222;27.558;2023-07-20T17:25:11;99667.03;;;30.57;100.00
41866;BME280;27539;43.222;27.558;2023-07-20T17:27:38;99640.72;;;30.37;100.00
41866;BME280;27539;43.222;27.558;2023-07-20T17:30:04;99663.69;;;30.41;100.00
41866;BME280;27539;43.222;27.558;2023-07-20T17:32:29;99666.53;;;30.37;100.00
41866;BME280;27539;43.222;27.558;2023-07-20T17:34:55;99665.97;;;30.06;100.00
41866;BME280;27539;43.222;27.558;2023-07-20T17:37:21;99658.16;;;30.00;100.00
41866;BME280;27539;43.222;27.558;2023-07-20T17:39:49;99673.91;;;29.68;100.00
41866;BME280;27539;43.222;27.558;2023-07-20T17:42:15;99669.81;;;29.69;100.00
41866;BME280;27539;43.222;27.558;2023-07-20T17:44:40;99656.41;;;29.81;100.00
41866;BME280;27539;43.222;27.558;2023-07-20T17:47:06;99649.41;;;29.78;100.00
41866;BME280;27539;43.222;27.558;2023-07-20T17:49:32;99670.41;;;29.97;100.00
41866;BME280;27539;43.222;27.558;2023-07-20T17:51:57;99687.69;;;30.07;100.00
41866;BME280;27539;43.222;27.558;2023-07-20T17:54:24;99685.53;;;29.90;100.00
41866;BME280;27539;43.222;27.558;2023-07-20T17:56:49;99680.25;;;29.96;100.00
41866;BME280;27539;43.222;27.558;2023-07-20T17:59:15;99685.13;;;29.91;100.00
41866;BME280;27539;43.222;27.558;2023-07-20T18:01:40;99674.09;;;29.93;100.00
41866;BME280;27539;43.222;27.558;2023-07-20T18:04:06;99690.78;;;29.77;100.00
41866;BME280;27539;43.222;27.558;2023-07-20T18:06:35;99720.28;;;29.78;100.00
41866;BME280;27539;43.222;27.558;2023-07-20T18:09:03;99694.78;;;29.65;100.00
41866;BME280;27539;43.222;27.558;2023-07-20T18:11:29;99720.34;;;29.40;100.00
41866;BME280;27539;43.222;27.558;2023-07-20T18:13:55;99692.50;;;29.37;100.00
41866;BME280;27539;43.222;27.558;2023-07-20T18:16:22;99702.28;;;29.36;100.00
41866;BME280;27539;43.222;27.558;2023-07-20T18:18:48;99700.75;;;28.68;100.00
41866;BME280;27539;43.222;27.558;2023-07-20T18:21:13;99713.91;;;28.72;100.00
41866;BME280;27539;43.222;27.558;2023-07-20T18:23:38;99730.22;;;28.11;100.00
41866;BME280;27539;43.222;27.558;2023-07-20T18:26:04;99759.47;;;27.51;100.00
41866;BME280;27539;43.222;27.558;2023-07-20T18:28:29;99776.03;;;27.00;100.00
41866;BME280;27539;43.222;27.558;2023-07-20T18:30:55;99781.44;;;26.85;100.00
41866;BME280;27539;43.222;27.558;2023-07-20T18:33:20;99787.38;;;26.96;100.00
41866;BME280;27539;43.222;27.558;2023-07-20T18:35:46;99792.47;;;27.06;100.00
41866;BME280;27539;43.222;27.558;2023-07-20T18:38:11;99775.41;;;27.10;100.00
41866;BME280;27539;43.222;27.558;2023-07-20T18:40:39;99799.19;;;27.37;100.00
41866;BME280;27539;43.222;27.558;2023-07-20T18:43:04;99793.22;;;27.23;100.00